sensor_id;sensor_type;location;lat;lon;timestamp;pressure;altitude;pressure_sealevel;temperature;humidity
5812;BME280;2932;52.400;9.558;2023-02-23T00:01:24;100494.34;;;12.89;70.26
5812;BME280;2932;52.400;9.558;2023-02-23T00:03:53;100484.50;;;12.72;69.88
5812;BME280;2932;52.400;9.558;2023-02-23T00:06:19;100491.94;;;12.68;70.48
5812;BME280;2932;52.400;9.558;2023-02-23T00:08:44;100485.22;;;12.69;70.72
5812;BME280;2932;52.400;9.558;2023-02-23T00:11:12;100486.31;;;12.64;70.43
5812;BME280;2932;52.400;9.558;2023-02-23T00:13:39;100489.47;;;12.47;71.65
5812;BME280;2932;52.400;9.558;2023-02-23T00:16:09;100492.47;;;12.74;71.32
5812;BME280;2932;52.400;9.558;2023-02-23T00:18:37;100488.84;;;12.54;71.26
5812;BME280;2932;52.400;9.558;2023-02-23T00:21:17;100489.09;;;12.64;71.53
5812;BME280;2932;52.400;9.558;2023-02-23T00:23:58;100481.88;;;12.44;71.68
5812;BME280;2932;52.400;9.558;2023-02-23T00:26:26;100487.78;;;12.43;72.39
5812;BME280;2932;52.400;9.558;2023-02-23T00:28:54;100487.03;;;12.81;71.22
5812;BME280;2932;52.400;9.558;2023-02-23T00:31:22;100490.13;;;12.95;70.32
5812;BME280;2932;52.400;9.558;2023-02-23T00:33:50;100485.78;;;12.59;71.06
5812;BME280;2932;52.400;9.558;2023-02-23T00:36:18;100489.81;;;12.61;71.54
5812;BME280;2932;52.400;9.558;2023-02-23T00:38:43;100488.16;;;12.95;70.95
5812;BME280;2932;52.400;9.558;2023-02-23T00:41:13;100489.41;;;12.79;70.38
5812;BME280;2932;52.400;9.558;2023-02-23T00:43:41;100492.91;;;12.41;71.04
5812;BME280;2932;52.400;9.558;2023-02-23T00:46:16;100491.09;;;12.48;71.66
5812;BME280;2932;52.400;9.558;2023-02-23T00:48:50;100492.53;;;12.42;71.39
5812;BME280;2932;52.400;9.558;2023-02-23T00:51:16;100494.00;;;12.36;71.67
5812;BME280;2932;52.400;9.558;2023-02-23T00:53:43;100501.38;;;12.13;72.65
5812;BME280;2932;52.400;9.558;2023-02-23T00:56:10;100494.84;;;12.05;73.38
5812;BME280;2932;52.400;9.558;2023-02-23T00:58:36;100503.97;;;12.06;73.07
5812;BME280;2932;52.400;9.558;2023-02-23T01:01:08;100502.28;;;11.85;73.88
5812;BME280;2932;52.400;9.558;2023-02-23T01:03:34;100498.97;;;11.80;74.13
5812;BME280;2932;52.400;9.558;2023-02-23T01:06:00;100497.84;;;11.68;74.28
5812;BME280;2932;52.400;9.558;2023-02-23T01:08:29;100498.53;;;11.78;74.64
5812;BME280;2932;52.400;9.558;2023-02-23T01:10:54;100497.56;;;11.42;75.04
5812;BME280;2932;52.400;9.558;2023-02-23T01:13:21;100508.38;;;11.47;75.33
5812;BME280;2932;52.400;9.558;2023-02-23T01:15:47;100501.53;;;11.29;75.58
5812;BME280;2932;52.400;9.558;2023-02-23T01:18:16;100509.25;;;11.35;75.81
5812;BME280;2932;52.400;9.558;2023-02-23T01:20:43;100509.69;;;11.38;75.63
5812;BME280;2932;52.400;9.558;2023-02-23T01:23:13;100514.38;;;11.65;75.77
5812;BME280;2932;52.400;9.558;2023-02-23T01:25:43;100509.28;;;11.67;75.18
5812;BME280;2932;52.400;9.558;2023-02-23T01:28:10;100519.47;;;11.47;76.00
5812;BME280;2932;52.400;9.558;2023-02-23T01:30:36;100516.66;;;11.31;76.55
5812;BME280;2932;52.400;9.558;2023-02-23T01:33:02;100521.72;;;11.73;76.08
5812;BME280;2932;52.400;9.558;2023-02-23T01:35:28;100518.66;;;11.62;75.89
5812;BME280;2932;52.400;9.558;2023-02-23T01:37:53;100523.41;;;11.62;76.17
5812;BME280;2932;52.400;9.558;2023-02-23T01:40:21;100519.47;;;11.47;76.72
5812;BME280;2932;52.400;9.558;2023-02-23T01:43:13;100529.25;;;11.57;76.74
5812;BME280;2932;52.400;9.558;2023-02-23T01:45:41;100527.13;;;11.38;77.19
5812;BME280;2932;52.400;9.558;2023-02-23T01:50:59;100531.66;;;11.58;76.78
5812;BME280;2932;52.400;9.558;2023-02-23T01:53:29;100538.81;;;11.75;76.98
5812;BME280;2932;52.400;9.558;2023-02-23T01:56:03;100530.41;;;11.28;77.80
5812;BME280;2932;52.400;9.558;2023-02-23T01:58:32;100531.56;;;11.55;77.14
5812;BME280;2932;52.400;9.558;2023-02-23T02:00:58;100528.28;;;11.37;77.79
5812;BME280;2932;52.400;9.558;2023-02-23T02:03:32;100521.34;;;11.15;78.33
5812;BME280;2932;52.400;9.558;2023-02-23T02:06:00;100520.16;;;10.88;79.43
5812;BME280;2932;52.400;9.558;2023-02-23T02:08:29;100524.72;;;11.09;79.53
5812;BME280;2932;52.400;9.558;2023-02-23T02:10:55;100534.56;;;10.94;79.94
5812;BME280;2932;52.400;9.558;2023-02-23T02:13:28;100532.84;;;10.89;79.94
5812;BME280;2932;52.400;9.558;2023-02-23T02:24:54;100534.88;;;11.05;80.40
5812;BME280;2932;52.400;9.558;2023-02-23T02:35:36;100532.00;;;11.29;79.06
5812;BME280;2932;52.400;9.558;2023-02-23T02:40:45;100536.66;;;11.53;78.58
5812;BME280;2932;52.400;9.558;2023-02-23T02:43:36;100539.38;;;11.37;78.91
5812;BME280;2932;52.400;9.558;2023-02-23T02:46:34;100537.81;;;11.52;78.23
5812;BME280;2932;52.400;9.558;2023-02-23T02:51:42;100537.19;;;11.30;78.56
5812;BME280;2932;52.400;9.558;2023-02-23T02:54:22;100522.97;;;11.16;78.90
5812;BME280;2932;52.400;9.558;2023-02-23T02:56:50;100523.81;;;11.05;79.77
5812;BME280;2932;52.400;9.558;2023-02-23T02:59:22;100535.16;;;10.87;80.84
5812;BME280;2932;52.400;9.558;2023-02-23T03:02:08;100523.75;;;10.89;81.15
5812;BME280;2932;52.400;9.558;2023-02-23T03:04:57;100530.84;;;11.02;80.63
5812;BME280;2932;52.400;9.558;2023-02-23T03:08:27;100532.63;;;10.82;81.02
5812;BME280;2932;52.400;9.558;2023-02-23T03:11:09;100524.50;;;11.01;81.24
5812;BME280;2932;52.400;9.558;2023-02-23T03:14:09;100524.81;;;11.12;80.92
5812;BME280;2932;52.400;9.558;2023-02-23T03:23:04;100523.81;;;11.05;81.39
5812;BME280;2932;52.400;9.558;2023-02-23T03:26:20;100526.09;;;11.15;81.36
5812;BME280;2932;52.400;9.558;2023-02-23T03:29:17;100521.47;;;11.19;80.89
5812;BME280;2932;52.400;9.558;2023-02-23T03:32:13;100526.81;;;11.27;80.87
5812;BME280;2932;52.400;9.558;2023-02-23T03:35:07;100522.25;;;11.47;80.51
5812;BME280;2932;52.400;9.558;2023-02-23T03:37:59;100526.25;;;11.78;79.84
5812;BME280;2932;52.400;9.558;2023-02-23T03:40:48;100521.94;;;12.12;78.06
5812;BME280;2932;52.400;9.558;2023-02-23T03:43:38;100523.38;;;12.06;77.60
5812;BME280;2932;52.400;9.558;2023-02-23T03:46:26;100523.38;;;12.06;77.94
5812;BME280;2932;52.400;9.558;2023-02-23T03:49:13;100521.03;;;12.23;77.35
5812;BME280;2932;52.400;9.558;2023-02-23T03:52:04;100521.81;;;12.40;77.09
5812;BME280;2932;52.400;9.558;2023-02-23T03:55:02;100518.81;;;12.64;76.26
5812;BME280;2932;52.400;9.558;2023-02-23T03:57:49;100520.88;;;12.67;75.81
5812;BME280;2932;52.400;9.558;2023-02-23T04:00:40;100518.44;;;12.30;75.82
5812;BME280;2932;52.400;9.558;2023-02-23T04:03:26;100512.63;;;12.35;76.26
5812;BME280;2932;52.400;9.558;2023-02-23T04:06:16;100525.78;;;12.93;75.28
5812;BME280;2932;52.400;9.558;2023-02-23T04:09:02;100526.03;;;13.23;74.17
5812;BME280;2932;52.400;9.558;2023-02-23T04:11:51;100522.00;;;13.20;73.35
5812;BME280;2932;52.400;9.558;2023-02-23T04:15:03;100531.94;;;13.41;72.91
5812;BME280;2932;52.400;9.558;2023-02-23T04:17:31;100521.34;;;13.08;73.26
5812;BME280;2932;52.400;9.558;2023-02-23T04:19:57;100525.63;;;12.66;74.27
5812;BME280;2932;52.400;9.558;2023-02-23T04:22:22;100526.00;;;12.49;74.89
5812;BME280;2932;52.400;9.558;2023-02-23T04:24:49;100521.34;;;11.87;76.61
5812;BME280;2932;52.400;9.558;2023-02-23T04:27:15;100524.56;;;11.61;78.20
5812;BME280;2932;52.400;9.558;2023-02-23T04:29:41;100518.78;;;10.94;80.46
5812;BME280;2932;52.400;9.558;2023-02-23T04:32:12;100527.16;;;11.10;81.14
5812;BME280;2932;52.400;9.558;2023-02-23T04:34:37;100525.88;;;11.08;80.89
5812;BME280;2932;52.400;9.558;2023-02-23T04:37:03;100529.91;;;11.38;80.31
5812;BME280;2932;52.400;9.558;2023-02-23T04:39:28;100529.50;;;11.24;80.65
5812;BME280;2932;52.400;9.558;2023-02-23T04:41:53;100527.25;;;11.14;80.80
5812;BME280;2932;52.400;9.558;2023-02-23T04:44:19;100534.75;;;11.13;81.09
5812;BME280;2932;52.400;9.558;2023-02-23T04:46:44;100532.78;;;11.14;81.04
5812;BME280;2932;52.400;9.558;2023-02-23T04:49:10;100530.72;;;11.11;81.30
5812;BME280;2932;52.400;9.558;2023-02-23T04:51:35;100536.38;;;11.30;81.04
5812;BME280;2932;52.400;9.558;2023-02-23T04:54:02;100542.69;;;11.43;80.27
5812;BME280;2932;52.400;9.558;2023-02-23T04:56:28;100550.06;;;11.66;79.85
5812;BME280;2932;52.400;9.558;2023-02-23T04:58:54;100538.16;;;11.50;80.08
5812;BME280;2932;52.400;9.558;2023-02-23T05:01:19;100537.19;;;11.30;80.55
5812;BME280;2932;52.400;9.558;2023-02-23T05:03:47;100534.56;;;11.22;80.50
5812;BME280;2932;52.400;9.558;2023-02-23T05:06:14;100539.13;;;11.14;81.63
5812;BME280;2932;52.400;9.558;2023-02-23T05:08:39;100536.59;;;11.09;82.15
5812;BME280;2932;52.400;9.558;2023-02-23T05:11:05;100536.53;;;11.21;81.72
5812;BME280;2932;52.400;9.558;2023-02-23T05:13:31;100537.41;;;11.10;82.05
5812;BME280;2932;52.400;9.558;2023-02-23T05:15:57;100529.25;;;11.01;82.14
5812;BME280;2932;52.400;9.558;2023-02-23T05:18:23;100530.44;;;10.88;82.84
5812;BME280;2932;52.400;9.558;2023-02-23T05:20:49;100535.94;;;11.00;82.66
5812;BME280;2932;52.400;9.558;2023-02-23T05:23:15;100542.38;;;11.04;82.76
5812;BME280;2932;52.400;9.558;2023-02-23T05:25:40;100538.44;;;11.17;82.13
5812;BME280;2932;52.400;9.558;2023-02-23T05:28:06;100544.34;;;11.59;81.42
5812;BME280;2932;52.400;9.558;2023-02-23T05:30:32;100545.75;;;11.53;81.08
5812;BME280;2932;52.400;9.558;2023-02-23T05:32:57;100547.94;;;11.76;80.48
5812;BME280;2932;52.400;9.558;2023-02-23T05:35:23;100554.59;;;11.87;80.14
5812;BME280;2932;52.400;9.558;2023-02-23T05:37:48;100549.75;;;11.84;79.67
5812;BME280;2932;52.400;9.558;2023-02-23T05:40:14;100552.66;;;11.75;80.16
5812;BME280;2932;52.400;9.558;2023-02-23T05:42:40;100546.66;;;11.73;80.09
5812;BME280;2932;52.400;9.558;2023-02-23T05:45:06;100547.91;;;11.60;80.40
5812;BME280;2932;52.400;9.558;2023-02-23T05:47:32;100546.22;;;11.55;80.86
5812;BME280;2932;52.400;9.558;2023-02-23T05:49:59;100548.63;;;11.57;80.64
5812;BME280;2932;52.400;9.558;2023-02-23T05:52:26;100546.13;;;11.67;80.38
5812;BME280;2932;52.400;9.558;2023-02-23T05:54:52;100541.72;;;11.79;80.34
5812;BME280;2932;52.400;9.558;2023-02-23T05:57:17;100546.13;;;11.67;80.22
5812;BME280;2932;52.400;9.558;2023-02-23T05:59:42;100543.88;;;11.85;79.90
5812;BME280;2932;52.400;9.558;2023-02-23T06:02:08;100546.03;;;11.64;80.01
5812;BME280;2932;52.400;9.558;2023-02-23T06:04:33;100556.41;;;11.95;79.78
5812;BME280;2932;52.400;9.558;2023-02-23T06:06:59;100548.69;;;12.04;79.44
5812;BME280;2932;52.400;9.558;2023-02-23T06:09:24;100551.09;;;12.21;78.33
5812;BME280;2932;52.400;9.558;2023-02-23T06:11:49;100552.53;;;12.31;77.85
5812;BME280;2932;52.400;9.558;2023-02-23T06:14:15;100556.84;;;12.28;78.27
5812;BME280;2932;52.400;9.558;2023-02-23T06:16:41;100554.28;;;12.55;77.68
5812;BME280;2932;52.400;9.558;2023-02-23T06:19:09;100555.59;;;12.26;77.59
5812;BME280;2932;52.400;9.558;2023-02-23T06:21:34;100558.72;;;12.24;78.13
5812;BME280;2932;52.400;9.558;2023-02-23T06:24:00;100554.94;;;12.17;77.95
5812;BME280;2932;52.400;9.558;2023-02-23T06:26:25;100554.06;;;11.81;78.88
5812;BME280;2932;52.400;9.558;2023-02-23T06:28:51;100557.88;;;11.77;79.87
5812;BME280;2932;52.400;9.558;2023-02-23T06:31:16;100558.00;;;11.68;79.76
5812;BME280;2932;52.400;9.558;2023-02-23T06:33:41;100560.31;;;11.78;79.98
5812;BME280;2932;52.400;9.558;2023-02-23T06:36:08;100567.19;;;11.84;79.83
5812;BME280;2932;52.400;9.558;2023-02-23T06:38:34;100570.63;;;11.93;79.54
5812;BME280;2932;52.400;9.558;2023-02-23T06:41:05;100575.00;;;11.94;79.76
5812;BME280;2932;52.400;9.558;2023-02-23T06:43:31;100571.63;;;11.73;79.84
5812;BME280;2932;52.400;9.558;2023-02-23T06:45:56;100569.00;;;11.64;80.40
5812;BME280;2932;52.400;9.558;2023-02-23T06:48:21;100577.84;;;11.82;80.28
5812;BME280;2932;52.400;9.558;2023-02-23T06:50:47;100576.06;;;12.21;79.52
5812;BME280;2932;52.400;9.558;2023-02-23T06:53:12;100579.75;;;12.25;78.76
5812;BME280;2932;52.400;9.558;2023-02-23T06:55:37;100582.69;;;12.32;79.06
5812;BME280;2932;52.400;9.558;2023-02-23T06:58:03;100579.25;;;12.55;78.17
5812;BME280;2932;52.400;9.558;2023-02-23T07:00:29;100591.38;;;12.82;77.58
5812;BME280;2932;52.400;9.558;2023-02-23T07:02:55;100588.00;;;12.73;77.24
5812;BME280;2932;52.400;9.558;2023-02-23T07:05:21;100591.53;;;12.54;77.47
5812;BME280;2932;52.400;9.558;2023-02-23T07:07:47;100587.31;;;12.60;78.01
5812;BME280;2932;52.400;9.558;2023-02-23T07:10:12;100590.47;;;12.43;77.66
5812;BME280;2932;52.400;9.558;2023-02-23T07:12:38;100585.19;;;12.22;78.83
5812;BME280;2932;52.400;9.558;2023-02-23T07:15:03;100600.22;;;12.05;79.04
5812;BME280;2932;52.400;9.558;2023-02-23T07:17:29;100595.94;;;11.92;79.81
5812;BME280;2932;52.400;9.558;2023-02-23T07:19:54;100593.06;;;11.88;80.45
5812;BME280;2932;52.400;9.558;2023-02-23T07:22:20;100600.91;;;11.86;80.68
5812;BME280;2932;52.400;9.558;2023-02-23T07:24:46;100604.88;;;11.73;81.07
5812;BME280;2932;52.400;9.558;2023-02-23T07:27:12;100604.06;;;11.73;81.35
5812;BME280;2932;52.400;9.558;2023-02-23T07:29:37;100611.94;;;11.70;81.56
5812;BME280;2932;52.400;9.558;2023-02-23T07:32:04;100608.69;;;11.81;81.57
5812;BME280;2932;52.400;9.558;2023-02-23T07:34:29;100610.03;;;11.59;82.00
5812;BME280;2932;52.400;9.558;2023-02-23T07:36:54;100614.03;;;11.61;81.89
5812;BME280;2932;52.400;9.558;2023-02-23T07:39:20;100617.91;;;11.57;82.59
5812;BME280;2932;52.400;9.558;2023-02-23T07:41:45;100623.13;;;11.74;82.54
5812;BME280;2932;52.400;9.558;2023-02-23T07:44:11;100630.97;;;12.00;81.91
5812;BME280;2932;52.400;9.558;2023-02-23T07:46:36;100619.53;;;11.58;82.18
5812;BME280;2932;52.400;9.558;2023-02-23T07:49:02;100618.59;;;11.54;82.58
5812;BME280;2932;52.400;9.558;2023-02-23T07:51:27;100620.41;;;11.62;82.68
5812;BME280;2932;52.400;9.558;2023-02-23T07:53:52;100618.38;;;11.75;82.42
5812;BME280;2932;52.400;9.558;2023-02-23T07:56:19;100624.72;;;11.59;82.50
5812;BME280;2932;52.400;9.558;2023-02-23T07:58:44;100617.91;;;11.57;82.94
5812;BME280;2932;52.400;9.558;2023-02-23T08:01:10;100623.81;;;11.71;82.59
5812;BME280;2932;52.400;9.558;2023-02-23T08:03:36;100629.25;;;11.80;82.34
5812;BME280;2932;52.400;9.558;2023-02-23T08:06:03;100625.44;;;11.72;82.17
5812;BME280;2932;52.400;9.558;2023-02-23T08:08:28;100630.97;;;11.72;82.02
5812;BME280;2932;52.400;9.558;2023-02-23T08:11:01;100636.53;;;11.72;82.23
5812;BME280;2932;52.400;9.558;2023-02-23T08:13:27;100632.22;;;11.59;82.66
5812;BME280;2932;52.400;9.558;2023-02-23T08:15:52;100628.91;;;11.81;82.59
5812;BME280;2932;52.400;9.558;2023-02-23T08:18:17;100632.94;;;11.84;82.35
5812;BME280;2932;52.400;9.558;2023-02-23T08:20:43;100632.22;;;11.87;81.87
5812;BME280;2932;52.400;9.558;2023-02-23T08:23:08;100632.03;;;11.67;82.22
5812;BME280;2932;52.400;9.558;2023-02-23T08:25:34;100633.91;;;11.63;82.39
5812;BME280;2932;52.400;9.558;2023-02-23T08:27:59;100632.00;;;11.52;82.54
5812;BME280;2932;52.400;9.558;2023-02-23T08:30:29;100638.28;;;11.64;82.69
5812;BME280;2932;52.400;9.558;2023-02-23T08:32:54;100645.50;;;11.53;82.67
5812;BME280;2932;52.400;9.558;2023-02-23T08:35:19;100642.78;;;11.69;82.71
5812;BME280;2932;52.400;9.558;2023-02-23T08:37:45;100643.69;;;11.73;82.64
5812;BME280;2932;52.400;9.558;2023-02-23T08:40:11;100645.63;;;11.85;82.40
5812;BME280;2932;52.400;9.558;2023-02-23T08:42:43;100651.63;;;11.87;81.73
5812;BME280;2932;52.400;9.558;2023-02-23T08:45:09;100648.72;;;12.11;81.36
5812;BME280;2932;52.400;9.558;2023-02-23T08:47:35;100650.88;;;12.18;80.79
5812;BME280;2932;52.400;9.558;2023-02-23T08:50:01;100656.78;;;12.16;80.28
5812;BME280;2932;52.400;9.558;2023-02-23T08:52:26;100657.41;;;12.25;80.30
5812;BME280;2932;52.400;9.558;2023-02-23T08:54:53;100660.81;;;12.19;80.27
5812;BME280;2932;52.400;9.558;2023-02-23T08:57:19;100662.44;;;12.35;80.37
5812;BME280;2932;52.400;9.558;2023-02-23T08:59:44;100666.47;;;12.54;80.12
5812;BME280;2932;52.400;9.558;2023-02-23T09:02:11;100665.38;;;12.43;79.65
5812;BME280;2932;52.400;9.558;2023-02-23T09:04:37;100669.41;;;12.29;79.75
5812;BME280;2932;52.400;9.558;2023-02-23T09:07:06;100663.25;;;12.36;79.88
5812;BME280;2932;52.400;9.558;2023-02-23T09:09:32;100670.69;;;12.04;79.57
5812;BME280;2932;52.400;9.558;2023-02-23T09:11:58;100668.41;;;12.22;79.98
5812;BME280;2932;52.400;9.558;2023-02-23T09:14:24;100674.03;;;12.10;80.06
5812;BME280;2932;52.400;9.558;2023-02-23T09:16:49;100672.91;;;11.70;80.84
5812;BME280;2932;52.400;9.558;2023-02-23T09:19:14;100676.81;;;11.82;81.09
5812;BME280;2932;52.400;9.558;2023-02-23T09:21:40;100671.09;;;11.62;81.80
5812;BME280;2932;52.400;9.558;2023-02-23T09:24:07;100684.00;;;11.70;81.20
5812;BME280;2932;52.400;9.558;2023-02-23T09:26:32;100676.69;;;11.90;81.78
5812;BME280;2932;52.400;9.558;2023-02-23T09:29:00;100679.09;;;11.92;81.00
5812;BME280;2932;52.400;9.558;2023-02-23T09:31:26;100674.16;;;11.85;81.10
5812;BME280;2932;52.400;9.558;2023-02-23T09:33:53;100684.69;;;11.67;82.14
5812;BME280;2932;52.400;9.558;2023-02-23T09:36:22;100685.38;;;11.36;82.82
5812;BME280;2932;52.400;9.558;2023-02-23T09:38:50;100683.31;;;11.61;82.82
5812;BME280;2932;52.400;9.558;2023-02-23T09:49:22;100687.91;;;11.82;81.66
5812;BME280;2932;52.400;9.558;2023-02-23T09:51:52;100695.47;;;11.97;81.51
5812;BME280;2932;52.400;9.558;2023-02-23T09:54:23;100691.28;;;12.03;81.29
5812;BME280;2932;52.400;9.558;2023-02-23T09:56:51;100696.97;;;12.22;80.79
5812;BME280;2932;52.400;9.558;2023-02-23T09:59:21;100700.44;;;12.19;80.67
5812;BME280;2932;52.400;9.558;2023-02-23T10:01:50;100697.63;;;12.03;80.81
5812;BME280;2932;52.400;9.558;2023-02-23T10:12:53;100707.41;;;11.85;81.39
5812;BME280;2932;52.400;9.558;2023-02-23T10:18:36;100711.66;;;11.55;82.42
5812;BME280;2932;52.400;9.558;2023-02-23T10:23:57;100714.47;;;11.70;81.72
5812;BME280;2932;52.400;9.558;2023-02-23T10:26:25;100715.50;;;11.38;82.70
5812;BME280;2932;52.400;9.558;2023-02-23T10:28:53;100712.00;;;11.53;83.20
5812;BME280;2932;52.400;9.558;2023-02-23T10:33:53;100719.63;;;11.56;83.25
5812;BME280;2932;52.400;9.558;2023-02-23T10:36:54;100716.09;;;11.72;83.14
5812;BME280;2932;52.400;9.558;2023-02-23T10:39:21;100719.97;;;11.55;83.10
5812;BME280;2932;52.400;9.558;2023-02-23T10:41:49;100722.59;;;11.63;84.25
5812;BME280;2932;52.400;9.558;2023-02-23T10:44:20;100724.69;;;12.22;84.23
5812;BME280;2932;52.400;9.558;2023-02-23T10:46:54;100711.53;;;12.19;81.61
5812;BME280;2932;52.400;9.558;2023-02-23T10:49:28;100712.72;;;11.90;81.98
5812;BME280;2932;52.400;9.558;2023-02-23T10:51:56;100715.88;;;11.77;81.97
5812;BME280;2932;52.400;9.558;2023-02-23T10:54:45;100714.38;;;11.79;82.23
5812;BME280;2932;52.400;9.558;2023-02-23T10:57:34;100709.88;;;11.62;82.42
5812;BME280;2932;52.400;9.558;2023-02-23T11:00:06;100710.03;;;11.54;82.68
5812;BME280;2932;52.400;9.558;2023-02-23T11:02:33;100711.94;;;11.78;82.50
5812;BME280;2932;52.400;9.558;2023-02-23T11:05:01;100713.28;;;11.96;82.36
5812;BME280;2932;52.400;9.558;2023-02-23T11:07:31;100700.63;;;11.70;81.77
5812;BME280;2932;52.400;9.558;2023-02-23T11:12:42;100709.19;;;11.65;82.42
5812;BME280;2932;52.400;9.558;2023-02-23T11:15:26;100699.44;;;11.44;83.08
5812;BME280;2932;52.400;9.558;2023-02-23T11:17:57;100697.91;;;11.58;83.35
5812;BME280;2932;52.400;9.558;2023-02-23T11:20:36;100702.53;;;11.94;83.18
5812;BME280;2932;52.400;9.558;2023-02-23T11:25:42;100705.22;;;12.50;82.48
5812;BME280;2932;52.400;9.558;2023-02-23T11:28:17;100702.91;;;12.37;81.36
5812;BME280;2932;52.400;9.558;2023-02-23T11:30:47;100699.44;;;12.12;81.18
5812;BME280;2932;52.400;9.558;2023-02-23T11:33:16;100697.13;;;11.86;81.72
5812;BME280;2932;52.400;9.558;2023-02-23T11:35:43;100691.25;;;11.87;82.00
5812;BME280;2932;52.400;9.558;2023-02-23T11:38:25;100692.78;;;12.00;81.87
5812;BME280;2932;52.400;9.558;2023-02-23T11:43:24;100691.25;;;11.47;82.58
5812;BME280;2932;52.400;9.558;2023-02-23T11:45:52;100689.19;;;11.72;82.49
5812;BME280;2932;52.400;9.558;2023-02-23T11:48:20;100684.00;;;11.70;82.35
5812;BME280;2932;52.400;9.558;2023-02-23T11:50:48;100684.41;;;11.57;82.47
5812;BME280;2932;52.400;9.558;2023-02-23T11:53:17;100677.78;;;11.61;82.33
5812;BME280;2932;52.400;9.558;2023-02-23T11:55:48;100687.31;;;11.88;82.27
5812;BME280;2932;52.400;9.558;2023-02-23T11:58:22;100682.31;;;11.94;81.84
5812;BME280;2932;52.400;9.558;2023-02-23T12:01:02;100682.78;;;12.12;81.10
5812;BME280;2932;52.400;9.558;2023-02-23T12:03:31;100684.44;;;12.28;81.09
5812;BME280;2932;52.400;9.558;2023-02-23T12:05:57;100677.00;;;12.48;80.66
5812;BME280;2932;52.400;9.558;2023-02-23T12:08:34;100673.47;;;13.14;78.88
5812;BME280;2932;52.400;9.558;2023-02-23T12:11:06;100674.69;;;13.32;77.37
5812;BME280;2932;52.400;9.558;2023-02-23T12:13:41;100672.81;;;13.37;76.77
5812;BME280;2932;52.400;9.558;2023-02-23T12:16:18;100674.09;;;13.23;76.22
5812;BME280;2932;52.400;9.558;2023-02-23T12:21:43;100666.34;;;12.82;76.29
5812;BME280;2932;52.400;9.558;2023-02-23T12:26:54;100668.88;;;12.71;77.94
5812;BME280;2932;52.400;9.558;2023-02-23T12:29:34;100657.75;;;12.87;77.93
5812;BME280;2932;52.400;9.558;2023-02-23T12:32:05;100658.19;;;12.89;77.29
5812;BME280;2932;52.400;9.558;2023-02-23T12:34:49;100666.56;;;13.24;77.61
5812;BME280;2932;52.400;9.558;2023-02-23T12:40:03;100667.41;;;13.63;76.59
5812;BME280;2932;52.400;9.558;2023-02-23T12:42:39;100666.59;;;13.62;75.98
5812;BME280;2932;52.400;9.558;2023-02-23T12:45:20;100666.75;;;13.15;75.64
5812;BME280;2932;52.400;9.558;2023-02-23T12:50:44;100664.91;;;12.88;76.39
5812;BME280;2932;52.400;9.558;2023-02-23T12:53:28;100666.09;;;12.55;76.32
5812;BME280;2932;52.400;9.558;2023-02-23T12:59:19;100667.28;;;12.39;77.93
5812;BME280;2932;52.400;9.558;2023-02-23T13:02:00;100668.84;;;12.40;78.04
5812;BME280;2932;52.400;9.558;2023-02-23T13:24:07;100653.13;;;12.28;78.38
5812;BME280;2932;52.400;9.558;2023-02-23T13:32:03;100663.03;;;12.45;78.21
5812;BME280;2932;52.400;9.558;2023-02-23T13:34:32;100658.66;;;12.44;79.01
5812;BME280;2932;52.400;9.558;2023-02-23T13:37:03;100658.13;;;12.54;78.90
5812;BME280;2932;52.400;9.558;2023-02-23T13:42:26;100648.72;;;12.11;79.84
5812;BME280;2932;52.400;9.558;2023-02-23T13:52:53;100655.44;;;12.26;80.60
5812;BME280;2932;52.400;9.558;2023-02-23T13:55:35;100660.47;;;12.36;80.38
5812;BME280;2932;52.400;9.558;2023-02-23T13:58:10;100655.38;;;12.38;80.15
5812;BME280;2932;52.400;9.558;2023-02-23T14:00:39;100665.19;;;12.51;79.80
5812;BME280;2932;52.400;9.558;2023-02-23T14:03:06;100658.19;;;12.89;79.44
5812;BME280;2932;52.400;9.558;2023-02-23T14:05:41;100665.88;;;12.95;78.73
5812;BME280;2932;52.400;9.558;2023-02-23T14:08:27;100663.00;;;13.08;78.52
5812;BME280;2932;52.400;9.558;2023-02-23T14:10:55;100663.09;;;12.95;77.97
5812;BME280;2932;52.400;9.558;2023-02-23T14:13:32;100662.03;;;12.84;77.49
5812;BME280;2932;52.400;9.558;2023-02-23T14:19:13;100664.00;;;12.84;77.51
5812;BME280;2932;52.400;9.558;2023-02-23T14:22:27;100667.81;;;12.76;78.33
5812;BME280;2932;52.400;9.558;2023-02-23T14:27:56;100665.34;;;12.90;78.80
5812;BME280;2932;52.400;9.558;2023-02-23T14:30:25;100666.78;;;12.84;78.26
5812;BME280;2932;52.400;9.558;2023-02-23T14:32:51;100673.72;;;12.58;78.72
5812;BME280;2932;52.400;9.558;2023-02-23T14:38:00;100658.44;;;12.05;80.15
5812;BME280;2932;52.400;9.558;2023-02-23T14:40:37;100666.91;;;12.24;80.13
5812;BME280;2932;52.400;9.558;2023-02-23T14:46:02;100657.38;;;11.94;80.50
5812;BME280;2932;52.400;9.558;2023-02-23T14:48:30;100660.09;;;11.78;81.35
5812;BME280;2932;52.400;9.558;2023-02-23T14:51:12;100666.91;;;11.81;81.73
5812;BME280;2932;52.400;9.558;2023-02-23T14:53:41;100665.38;;;11.43;82.14
5812;BME280;2932;52.400;9.558;2023-02-23T14:56:21;100670.47;;;11.41;82.44
5812;BME280;2932;52.400;9.558;2023-02-23T14:58:52;100667.34;;;11.43;82.53
5812;BME280;2932;52.400;9.558;2023-02-23T15:01:38;100672.09;;;11.42;83.05
5812;BME280;2932;52.400;9.558;2023-02-23T15:04:05;100669.22;;;11.66;82.99
5812;BME280;2932;52.400;9.558;2023-02-23T15:06:30;100667.84;;;11.60;82.09
5812;BME280;2932;52.400;9.558;2023-02-23T15:08:56;100674.59;;;11.87;81.63
5812;BME280;2932;52.400;9.558;2023-02-23T15:11:23;100667.59;;;11.38;81.46
5812;BME280;2932;52.400;9.558;2023-02-23T15:13:49;100671.97;;;11.39;81.56
5812;BME280;2932;52.400;9.558;2023-02-23T15:16:26;100664.44;;;11.51;81.28
5812;BME280;2932;52.400;9.558;2023-02-23T15:18:52;100678.88;;;11.57;80.91
5812;BME280;2932;52.400;9.558;2023-02-23T15:21:21;100674.16;;;11.85;80.81
5812;BME280;2932;52.400;9.558;2023-02-23T15:23:49;100670.03;;;11.67;80.16
5812;BME280;2932;52.400;9.558;2023-02-23T15:29:16;100673.44;;;11.88;80.01
5812;BME280;2932;52.400;9.558;2023-02-23T15:31:44;100679.16;;;11.80;79.65
5812;BME280;2932;52.400;9.558;2023-02-23T15:34:27;100677.97;;;11.81;79.33
5812;BME280;2932;52.400;9.558;2023-02-23T15:37:00;100679.81;;;12.05;79.11
5812;BME280;2932;52.400;9.558;2023-02-23T15:39:33;100676.78;;;11.94;78.97